Bermuda Spirit — C6XT2 — position and weather

sailwx.info

Track history (hours):
 
Tides and Currents Weather Stations Pressure Air Temp Water Temp Dewpoint Dewpoint Depression Visibility Wind Speed Wind Dir Waves Ship Positions

Bermuda Spirit

Last reported at 2015-Feb-21 13:33 UTC. Time now 2015-Mar-01 12:39 UTC.
Position N 37°38' E 023°42'.

Length 274 m; draft 11.1 m.

Type: Tanker. MMSI: 311020900.

Date/timePositionNaut miles runAvg speedWind from/ knotsBaromVisibWave heightAir tempDewpointWater temp
2015-Feb-21 13:33N 37°38' E 023°42'1211.9
2015-Feb-21 12:33N 37°49' E 023°37'1411.9
2015-Feb-21 11:25N 37°56' E 023°22'3 3.1
2015-Feb-21 10:33N 37°58' E 023°23'0 0.0
2015-Feb-21 09:34N 37°58' E 023°23'0 0.0
2015-Feb-21 08:28N 37°58' E 023°23'0 0.0
2015-Feb-21 07:16N 37°58' E 023°23'0 0.0
2015-Feb-21 06:22N 37°58' E 023°23'0 0.0
2015-Feb-21 05:34N 37°58' E 023°23'0 0.0
2015-Feb-21 04:28N 37°58' E 023°23'0 0.0
2015-Feb-21 03:34N 37°58' E 023°23'0 0.0
2015-Feb-21 02:28N 37°58' E 023°23'0 0.0
2015-Feb-21 01:28N 37°58' E 023°23'0 0.0
2015-Feb-21 00:34N 37°58' E 023°23'0 0.0
2015-Feb-20 23:31N 37°58' E 023°23'0 0.0
2015-Feb-20 22:28N 37°58' E 023°23'0 0.0
2015-Feb-20 21:22N 37°58' E 023°23'0 0.0
2015-Feb-20 20:16N 37°58' E 023°23'0 0.0
2015-Feb-20 19:34N 37°58' E 023°23'0 0.0
2015-Feb-20 18:28N 37°58' E 023°23'0 0.0
2015-Feb-20 17:28N 37°58' E 023°23'0 0.0
2015-Feb-20 16:28N 37°58' E 023°23'0 0.0
2015-Feb-20 15:22N 37°58' E 023°23'1 0.5
2015-Feb-20 13:28N 37°57' E 023°23'0 0.2
2015-Feb-20 12:10N 37°57' E 023°23'0 0.0
2015-Feb-20 11:28N 37°57' E 023°23'0 0.0
2015-Feb-20 09:28N 37°57' E 023°23'0 0.0
2015-Feb-20 08:28N 37°57' E 023°23'0 0.0
2015-Feb-20 07:31N 37°57' E 023°23'0 0.0
2015-Feb-20 06:31N 37°57' E 023°23'0 0.0
2015-Feb-20 05:34N 37°57' E 023°23'0 0.0
2015-Feb-20 04:31N 37°57' E 023°23'0 0.0
2015-Feb-20 03:31N 37°57' E 023°23'0 0.0
2015-Feb-20 02:31N 37°57' E 023°23'1 0.8
2015-Feb-20 01:33N 37°57' E 023°22'2 1.5
2015-Feb-20 00:33N 37°55' E 023°21'1 0.7
2015-Feb-19 23:32N 37°56' E 023°22'8 7.8
2015-Feb-19 22:33N 37°50' E 023°29'1010.0
2015-Feb-19 21:34N 37°48' E 023°41'1312.6
2015-Feb-19 20:33N 37°38' E 023°51'1312.9
2015-Feb-19 19:32N 37°35' E 024°07'1813.2
2015-Feb-19 18:10N 37°49' E 024°22'  
2015-Feb-16 07:29N 41°14' E 029°08'8 8.7
2015-Feb-16 06:32N 41°22' E 029°04'2 0.2
2015-Feb-15 22:14N 41°23' E 029°06'2 0.7
2015-Feb-15 20:08N 41°24' E 029°05'2 0.3
2015-Feb-15 10:28N 41°22' E 029°05'0 0.3
2015-Feb-15 09:22N 41°22' E 029°06'0 0.4
2015-Feb-15 08:10N 41°22' E 029°06'1 1.1
2015-Feb-15 07:22N 41°23' E 029°06'1 0.8
2015-Feb-15 06:28N 41°24' E 029°06'1 0.6
2015-Feb-15 05:32N 41°24' E 029°05'41114.5
2015-Feb-14 01:06N 44°27' E 037°29'814.6
2015-Feb-14 00:33N 44°32' E 037°37'5 5.3
2015-Feb-13 23:33N 44°36' E 037°42'6 6.4
2015-Feb-13 22:33N 44°34' E 037°51'3 3.0
2015-Feb-13 21:32N 44°34' E 037°55'0 0.0
2015-Feb-13 20:32N 44°34' E 037°55'0 0.0
2015-Feb-13 19:32N 44°34' E 037°55'0 0.0
2015-Feb-13 18:32N 44°34' E 037°55'0 0.0
2015-Feb-13 17:32N 44°34' E 037°55'0 0.0
2015-Feb-13 16:32N 44°34' E 037°55'0 0.0
2015-Feb-13 15:32N 44°34' E 037°55'0 0.0
2015-Feb-13 14:32N 44°34' E 037°55'0 0.1
2015-Feb-13 13:32N 44°34' E 037°55'0 0.0
2015-Feb-13 12:32N 44°34' E 037°55'0 0.1
2015-Feb-13 11:32N 44°34' E 037°55'0 0.0
2015-Feb-13 10:33N 44°34' E 037°55'1 1.1
2015-Feb-13 09:33N 44°33' E 037°55'7 7.4
2015-Feb-13 08:33N 44°34' E 037°45'3 2.8
2015-Feb-13 07:33N 44°35' E 037°41'1 0.8
2015-Feb-13 06:33N 44°34' E 037°41'1 0.9
2015-Feb-13 05:33N 44°35' E 037°43'1 0.9
2015-Feb-13 04:33N 44°35' E 037°44'1 0.9
2015-Feb-13 03:33N 44°35' E 037°45'1 1.3
2015-Feb-13 02:33N 44°36' E 037°44'4 3.9
2015-Feb-13 01:33N 44°34' E 037°39'4 4.2
2015-Feb-13 00:32N 44°33' E 037°33'1 0.6
2015-Feb-12 23:33N 44°32' E 037°34'1 1.4
2015-Feb-12 22:33N 44°33' E 037°35'1 1.2
2015-Feb-12 21:33N 44°33' E 037°37'1 1.2
2015-Feb-12 20:33N 44°33' E 037°39'1 1.3
2015-Feb-12 19:33N 44°34' E 037°40'1 1.1
2015-Feb-12 18:33N 44°34' E 037°42'1 1.0
2015-Feb-12 17:33N 44°34' E 037°43'1 1.1
2015-Feb-12 16:33N 44°35' E 037°45'1 1.1
2015-Feb-12 15:33N 44°35' E 037°46'0 0.5
2015-Feb-12 14:33N 44°35' E 037°47'5 4.6
2015-Feb-12 13:33N 44°31' E 037°43'0 0.2
2015-Feb-12 12:33N 44°31' E 037°43'1 0.9
2015-Feb-12 11:33N 44°32' E 037°44'1 1.0
2015-Feb-12 10:33N 44°32' E 037°45'1 0.9
2015-Feb-12 09:33N 44°33' E 037°46'1 0.9
2015-Feb-12 08:33N 44°34' E 037°47'1 1.1
2015-Feb-12 07:33N 44°34' E 037°48'0 0.2
2015-Feb-12 06:33N 44°34' E 037°48'3 3.0
2015-Feb-12 05:33N 44°33' E 037°45'1 1.0
2015-Feb-12 04:33N 44°34' E 037°45'1 1.2
2015-Feb-12 03:33N 44°34' E 037°47'1 0.6
2015-Feb-12 02:33N 44°34' E 037°48'3 2.8
2015-Feb-12 01:33N 44°32' E 037°45'5 4.7
2015-Feb-12 00:33N 44°29' E 037°40'0 0.3
2015-Feb-11 23:33N 44°29' E 037°40'1 1.0
2015-Feb-11 22:33N 44°30' E 037°41'1 1.0
2015-Feb-11 21:33N 44°30' E 037°42'1 1.0
2015-Feb-11 20:33N 44°31' E 037°43'1 0.9
2015-Feb-11 19:33N 44°32' E 037°44'1 1.0
2015-Feb-11 18:33N 44°32' E 037°45'1 1.1
2015-Feb-11 17:33N 44°33' E 037°46'1 1.2
2015-Feb-11 16:33N 44°34' E 037°47'0 0.5
2015-Feb-11 15:33N 44°34' E 037°47'5 5.0
2015-Feb-11 14:33N 44°30' E 037°42'1 1.1
2015-Feb-11 13:33N 44°31' E 037°43'  
Track history (hours):
 
Tides and Currents Weather Stations Pressure Air Temp Water Temp Dewpoint Dewpoint Depression Visibility Wind Speed Wind Dir Waves Ship Positions

Bermuda Spirit

Last reported at 2015-Feb-21 13:33 UTC. Time now 2015-Mar-01 12:39 UTC.
Position N 37°38' E 023°42'.

Length 274 m; draft 11.1 m.

Type: Tanker. MMSI: 311020900.

Date/timePositionNaut miles runAvg speedWind from/ knotsBaromVisibWave heightAir tempDewpointWater temp
2015-Feb-21 13:33N 37°38' E 023°42'1211.9
2015-Feb-21 12:33N 37°49' E 023°37'1411.9
2015-Feb-21 11:25N 37°56' E 023°22'3 3.1
2015-Feb-21 10:33N 37°58' E 023°23'0 0.0
2015-Feb-21 09:34N 37°58' E 023°23'0 0.0
2015-Feb-21 08:28N 37°58' E 023°23'0 0.0
2015-Feb-21 07:16N 37°58' E 023°23'0 0.0
2015-Feb-21 06:22N 37°58' E 023°23'0 0.0
2015-Feb-21 05:34N 37°58' E 023°23'0 0.0
2015-Feb-21 04:28N 37°58' E 023°23'0 0.0
2015-Feb-21 03:34N 37°58' E 023°23'0 0.0
2015-Feb-21 02:28N 37°58' E 023°23'0 0.0
2015-Feb-21 01:28N 37°58' E 023°23'0 0.0
2015-Feb-21 00:34N 37°58' E 023°23'0 0.0
2015-Feb-20 23:31N 37°58' E 023°23'0 0.0
2015-Feb-20 22:28N 37°58' E 023°23'0 0.0
2015-Feb-20 21:22N 37°58' E 023°23'0 0.0
2015-Feb-20 20:16N 37°58' E 023°23'0 0.0
2015-Feb-20 19:34N 37°58' E 023°23'0 0.0
2015-Feb-20 18:28N 37°58' E 023°23'0 0.0
2015-Feb-20 17:28N 37°58' E 023°23'0 0.0
2015-Feb-20 16:28N 37°58' E 023°23'0 0.0
2015-Feb-20 15:22N 37°58' E 023°23'1 0.5
2015-Feb-20 13:28N 37°57' E 023°23'0 0.2
2015-Feb-20 12:10N 37°57' E 023°23'0 0.0
2015-Feb-20 11:28N 37°57' E 023°23'0 0.0
2015-Feb-20 09:28N 37°57' E 023°23'0 0.0
2015-Feb-20 08:28N 37°57' E 023°23'0 0.0
2015-Feb-20 07:31N 37°57' E 023°23'0 0.0
2015-Feb-20 06:31N 37°57' E 023°23'0 0.0
2015-Feb-20 05:34N 37°57' E 023°23'0 0.0
2015-Feb-20 04:31N 37°57' E 023°23'0 0.0
2015-Feb-20 03:31N 37°57' E 023°23'0 0.0
2015-Feb-20 02:31N 37°57' E 023°23'1 0.8
2015-Feb-20 01:33N 37°57' E 023°22'2 1.5
2015-Feb-20 00:33N 37°55' E 023°21'1 0.7
2015-Feb-19 23:32N 37°56' E 023°22'8 7.8
2015-Feb-19 22:33N 37°50' E 023°29'1010.0
2015-Feb-19 21:34N 37°48' E 023°41'1312.6
2015-Feb-19 20:33N 37°38' E 023°51'1312.9
2015-Feb-19 19:32N 37°35' E 024°07'1813.2
2015-Feb-19 18:10N 37°49' E 024°22'  
2015-Feb-16 07:29N 41°14' E 029°08'8 8.7
2015-Feb-16 06:32N 41°22' E 029°04'2 0.2
2015-Feb-15 22:14N 41°23' E 029°06'2 0.7
2015-Feb-15 20:08N 41°24' E 029°05'2 0.3
2015-Feb-15 10:28N 41°22' E 029°05'0 0.3
2015-Feb-15 09:22N 41°22' E 029°06'0 0.4
2015-Feb-15 08:10N 41°22' E 029°06'1 1.1
2015-Feb-15 07:22N 41°23' E 029°06'1 0.8
2015-Feb-15 06:28N 41°24' E 029°06'1 0.6
2015-Feb-15 05:32N 41°24' E 029°05'41114.5
2015-Feb-14 01:06N 44°27' E 037°29'814.6
2015-Feb-14 00:33N 44°32' E 037°37'5 5.3
2015-Feb-13 23:33N 44°36' E 037°42'6 6.4
2015-Feb-13 22:33N 44°34' E 037°51'3 3.0
2015-Feb-13 21:32N 44°34' E 037°55'0 0.0
2015-Feb-13 20:32N 44°34' E 037°55'0 0.0
2015-Feb-13 19:32N 44°34' E 037°55'0 0.0
2015-Feb-13 18:32N 44°34' E 037°55'0 0.0
2015-Feb-13 17:32N 44°34' E 037°55'0 0.0
2015-Feb-13 16:32N 44°34' E 037°55'0 0.0
2015-Feb-13 15:32N 44°34' E 037°55'0 0.0
2015-Feb-13 14:32N 44°34' E 037°55'0 0.1
2015-Feb-13 13:32N 44°34' E 037°55'0 0.0
2015-Feb-13 12:32N 44°34' E 037°55'0 0.1
2015-Feb-13 11:32N 44°34' E 037°55'0 0.0
2015-Feb-13 10:33N 44°34' E 037°55'1 1.1
2015-Feb-13 09:33N 44°33' E 037°55'7 7.4
2015-Feb-13 08:33N 44°34' E 037°45'3 2.8
2015-Feb-13 07:33N 44°35' E 037°41'1 0.8
2015-Feb-13 06:33N 44°34' E 037°41'1 0.9
2015-Feb-13 05:33N 44°35' E 037°43'1 0.9
2015-Feb-13 04:33N 44°35' E 037°44'1 0.9
2015-Feb-13 03:33N 44°35' E 037°45'1 1.3
2015-Feb-13 02:33N 44°36' E 037°44'4 3.9
2015-Feb-13 01:33N 44°34' E 037°39'4 4.2
2015-Feb-13 00:32N 44°33' E 037°33'1 0.6
2015-Feb-12 23:33N 44°32' E 037°34'1 1.4
2015-Feb-12 22:33N 44°33' E 037°35'1 1.2
2015-Feb-12 21:33N 44°33' E 037°37'1 1.2
2015-Feb-12 20:33N 44°33' E 037°39'1 1.3
2015-Feb-12 19:33N 44°34' E 037°40'1 1.1
2015-Feb-12 18:33N 44°34' E 037°42'1 1.0
2015-Feb-12 17:33N 44°34' E 037°43'1 1.1
2015-Feb-12 16:33N 44°35' E 037°45'1 1.1
2015-Feb-12 15:33N 44°35' E 037°46'0 0.5
2015-Feb-12 14:33N 44°35' E 037°47'5 4.6
2015-Feb-12 13:33N 44°31' E 037°43'0 0.2
2015-Feb-12 12:33N 44°31' E 037°43'1 0.9
2015-Feb-12 11:33N 44°32' E 037°44'1 1.0
2015-Feb-12 10:33N 44°32' E 037°45'1 0.9
2015-Feb-12 09:33N 44°33' E 037°46'1 0.9
2015-Feb-12 08:33N 44°34' E 037°47'1 1.1
2015-Feb-12 07:33N 44°34' E 037°48'0 0.2
2015-Feb-12 06:33N 44°34' E 037°48'3 3.0
2015-Feb-12 05:33N 44°33' E 037°45'1 1.0
2015-Feb-12 04:33N 44°34' E 037°45'1 1.2
2015-Feb-12 03:33N 44°34' E 037°47'1 0.6
2015-Feb-12 02:33N 44°34' E 037°48'3 2.8
2015-Feb-12 01:33N 44°32' E 037°45'5 4.7
2015-Feb-12 00:33N 44°29' E 037°40'0 0.3
2015-Feb-11 23:33N 44°29' E 037°40'1 1.0
2015-Feb-11 22:33N 44°30' E 037°41'1 1.0
2015-Feb-11 21:33N 44°30' E 037°42'1 1.0
2015-Feb-11 20:33N 44°31' E 037°43'1 0.9
2015-Feb-11 19:33N 44°32' E 037°44'1 1.0
2015-Feb-11 18:33N 44°32' E 037°45'1 1.1
2015-Feb-11 17:33N 44°33' E 037°46'1 1.2
2015-Feb-11 16:33N 44°34' E 037°47'0 0.5
2015-Feb-11 15:33N 44°34' E 037°47'5 5.0
2015-Feb-11 14:33N 44°30' E 037°42'1 1.1
2015-Feb-11 13:33N 44°31' E 037°43'  

Dump ship's entire track history